sensor_id;sensor_type;location;lat;lon;timestamp;temperature;humidity
52879;DHT22;38747;53.140;6.498;2022-11-15T00:02:07;7.90;99.90
52879;DHT22;38747;53.140;6.498;2022-11-15T00:04:33;7.80;99.90
52879;DHT22;38747;53.140;6.498;2022-11-15T00:06:59;7.80;99.90
52879;DHT22;38747;53.140;6.498;2022-11-15T00:09:24;7.70;99.90
52879;DHT22;38747;53.140;6.498;2022-11-15T00:11:51;7.60;99.90
52879;DHT22;38747;53.140;6.498;2022-11-15T00:14:17;7.50;99.90
52879;DHT22;38747;53.140;6.498;2022-11-15T00:16:43;7.50;99.90
52879;DHT22;38747;53.140;6.498;2022-11-15T00:19:08;7.40;99.90
52879;DHT22;38747;53.140;6.498;2022-11-15T00:21:34;7.30;99.90
52879;DHT22;38747;53.140;6.498;2022-11-15T00:24:00;7.30;99.90
52879;DHT22;38747;53.140;6.498;2022-11-15T00:26:25;7.30;99.90
52879;DHT22;38747;53.140;6.498;2022-11-15T00:28:52;7.30;99.90
52879;DHT22;38747;53.140;6.498;2022-11-15T00:31:18;7.20;99.90
52879;DHT22;38747;53.140;6.498;2022-11-15T00:33:44;7.20;99.90
52879;DHT22;38747;53.140;6.498;2022-11-15T00:36:10;7.20;99.90
52879;DHT22;38747;53.140;6.498;2022-11-15T00:38:38;7.30;99.90
52879;DHT22;38747;53.140;6.498;2022-11-15T00:41:05;7.30;99.90
52879;DHT22;38747;53.140;6.498;2022-11-15T00:43:31;7.30;99.90
52879;DHT22;38747;53.140;6.498;2022-11-15T00:45:57;7.40;99.90
52879;DHT22;38747;53.140;6.498;2022-11-15T00:48:23;7.40;99.90
52879;DHT22;38747;53.140;6.498;2022-11-15T00:50:49;7.40;99.90
52879;DHT22;38747;53.140;6.498;2022-11-15T00:53:15;7.50;99.90
52879;DHT22;38747;53.140;6.498;2022-11-15T00:55:41;7.50;99.90
52879;DHT22;38747;53.140;6.498;2022-11-15T00:58:07;7.50;99.90
52879;DHT22;38747;53.140;6.498;2022-11-15T01:00:32;7.60;99.90
52879;DHT22;38747;53.140;6.498;2022-11-15T01:03:00;7.60;99.90
52879;DHT22;38747;53.140;6.498;2022-11-15T01:05:25;7.60;99.90
52879;DHT22;38747;53.140;6.498;2022-11-15T01:07:52;7.60;99.90
52879;DHT22;38747;53.140;6.498;2022-11-15T01:10:18;7.60;99.90
52879;DHT22;38747;53.140;6.498;2022-11-15T01:12:44;7.60;99.90
52879;DHT22;38747;53.140;6.498;2022-11-15T01:15:10;7.60;99.90
52879;DHT22;38747;53.140;6.498;2022-11-15T01:17:35;7.60;99.90
52879;DHT22;38747;53.140;6.498;2022-11-15T01:20:01;7.60;99.90
52879;DHT22;38747;53.140;6.498;2022-11-15T01:22:27;7.60;99.90
52879;DHT22;38747;53.140;6.498;2022-11-15T01:24:52;7.70;99.90
52879;DHT22;38747;53.140;6.498;2022-11-15T01:27:18;7.70;99.90
52879;DHT22;38747;53.140;6.498;2022-11-15T01:29:44;7.60;99.90
52879;DHT22;38747;53.140;6.498;2022-11-15T01:32:09;7.60;99.90
52879;DHT22;38747;53.140;6.498;2022-11-15T01:34:35;7.60;99.90
52879;DHT22;38747;53.140;6.498;2022-11-15T01:37:00;7.60;99.90
52879;DHT22;38747;53.140;6.498;2022-11-15T01:39:26;7.60;99.90
52879;DHT22;38747;53.140;6.498;2022-11-15T01:41:52;7.60;99.90
52879;DHT22;38747;53.140;6.498;2022-11-15T01:47:24;7.50;99.90
52879;DHT22;38747;53.140;6.498;2022-11-15T01:50:19;7.50;99.90
52879;DHT22;38747;53.140;6.498;2022-11-15T01:52:47;7.50;99.90
52879;DHT22;38747;53.140;6.498;2022-11-15T01:55:20;7.50;99.90
52879;DHT22;38747;53.140;6.498;2022-11-15T01:57:48;7.50;99.90
52879;DHT22;38747;53.140;6.498;2022-11-15T02:00:16;7.50;99.90
52879;DHT22;38747;53.140;6.498;2022-11-15T02:02:41;7.50;99.90
52879;DHT22;38747;53.140;6.498;2022-11-15T02:05:08;7.50;99.90
52879;DHT22;38747;53.140;6.498;2022-11-15T02:07:35;7.50;99.90
52879;DHT22;38747;53.140;6.498;2022-11-15T02:10:12;7.40;99.90
52879;DHT22;38747;53.140;6.498;2022-11-15T02:12:39;7.50;99.90
52879;DHT22;38747;53.140;6.498;2022-11-15T02:15:06;7.40;99.90
52879;DHT22;38747;53.140;6.498;2022-11-15T02:21:03;7.40;99.90
52879;DHT22;38747;53.140;6.498;2022-11-15T02:29:15;7.40;99.90
52879;DHT22;38747;53.140;6.498;2022-11-15T02:35:00;7.40;99.90
52879;DHT22;38747;53.140;6.498;2022-11-15T02:37:42;7.40;99.90
52879;DHT22;38747;53.140;6.498;2022-11-15T02:40:48;7.40;99.90
52879;DHT22;38747;53.140;6.498;2022-11-15T02:43:40;7.40;99.90
52879;DHT22;38747;53.140;6.498;2022-11-15T02:49:16;7.40;99.90
52879;DHT22;38747;53.140;6.498;2022-11-15T02:51:43;7.50;99.90
52879;DHT22;38747;53.140;6.498;2022-11-15T02:54:17;7.40;99.90
52879;DHT22;38747;53.140;6.498;2022-11-15T02:56:45;7.40;99.90
52879;DHT22;38747;53.140;6.498;2022-11-15T03:02:40;7.40;99.90
52879;DHT22;38747;53.140;6.498;2022-11-15T03:08:09;7.40;99.90
52879;DHT22;38747;53.140;6.498;2022-11-15T03:13:30;7.50;99.90
52879;DHT22;38747;53.140;6.498;2022-11-15T03:16:11;7.50;99.90
52879;DHT22;38747;53.140;6.498;2022-11-15T03:19:04;7.50;99.90
52879;DHT22;38747;53.140;6.498;2022-11-15T03:21:33;7.50;99.90
52879;DHT22;38747;53.140;6.498;2022-11-15T03:24:03;7.50;99.90
52879;DHT22;38747;53.140;6.498;2022-11-15T03:26:32;7.50;99.90
52879;DHT22;38747;53.140;6.498;2022-11-15T03:29:03;7.50;99.90
52879;DHT22;38747;53.140;6.498;2022-11-15T03:31:33;7.50;99.90
52879;DHT22;38747;53.140;6.498;2022-11-15T03:36:45;7.60;99.90
52879;DHT22;38747;53.140;6.498;2022-11-15T03:39:12;7.60;99.90
52879;DHT22;38747;53.140;6.498;2022-11-15T03:41:48;7.60;99.90
52879;DHT22;38747;53.140;6.498;2022-11-15T03:49:44;7.60;99.90
52879;DHT22;38747;53.140;6.498;2022-11-15T03:52:12;7.60;99.90
52879;DHT22;38747;53.140;6.498;2022-11-15T03:54:48;7.60;99.90
52879;DHT22;38747;53.140;6.498;2022-11-15T03:57:14;7.60;99.90
52879;DHT22;38747;53.140;6.498;2022-11-15T03:59:40;7.60;99.90
52879;DHT22;38747;53.140;6.498;2022-11-15T04:02:05;7.60;99.90
52879;DHT22;38747;53.140;6.498;2022-11-15T04:04:31;7.70;99.90
52879;DHT22;38747;53.140;6.498;2022-11-15T04:06:56;7.70;99.90
52879;DHT22;38747;53.140;6.498;2022-11-15T04:09:22;7.70;99.90
52879;DHT22;38747;53.140;6.498;2022-11-15T04:11:47;7.70;99.90
52879;DHT22;38747;53.140;6.498;2022-11-15T04:14:13;7.70;99.90
52879;DHT22;38747;53.140;6.498;2022-11-15T04:16:39;7.70;99.90
52879;DHT22;38747;53.140;6.498;2022-11-15T04:19:04;7.80;99.90
52879;DHT22;38747;53.140;6.498;2022-11-15T04:21:48;7.80;99.90
52879;DHT22;38747;53.140;6.498;2022-11-15T04:24:32;7.80;99.90
52879;DHT22;38747;53.140;6.498;2022-11-15T04:26:58;7.80;99.90
52879;DHT22;38747;53.140;6.498;2022-11-15T04:29:24;7.80;99.90
52879;DHT22;38747;53.140;6.498;2022-11-15T04:32:03;7.90;99.90
52879;DHT22;38747;53.140;6.498;2022-11-15T04:34:30;7.90;99.90
52879;DHT22;38747;53.140;6.498;2022-11-15T04:36:55;7.90;99.90
52879;DHT22;38747;53.140;6.498;2022-11-15T04:39:40;7.90;99.90
52879;DHT22;38747;53.140;6.498;2022-11-15T04:42:06;7.90;99.90
52879;DHT22;38747;53.140;6.498;2022-11-15T04:44:32;7.90;99.90
52879;DHT22;38747;53.140;6.498;2022-11-15T04:46:58;7.90;99.90
52879;DHT22;38747;53.140;6.498;2022-11-15T04:49:23;7.90;99.90
52879;DHT22;38747;53.140;6.498;2022-11-15T04:51:49;7.90;99.90
52879;DHT22;38747;53.140;6.498;2022-11-15T04:54:15;7.90;99.90
52879;DHT22;38747;53.140;6.498;2022-11-15T04:56:40;8.00;99.90
52879;DHT22;38747;53.140;6.498;2022-11-15T04:59:06;7.90;99.90
52879;DHT22;38747;53.140;6.498;2022-11-15T05:01:32;8.00;99.90
52879;DHT22;38747;53.140;6.498;2022-11-15T05:03:57;8.00;99.90
52879;DHT22;38747;53.140;6.498;2022-11-15T05:06:41;8.00;99.90
52879;DHT22;38747;53.140;6.498;2022-11-15T05:09:07;8.00;99.90
52879;DHT22;38747;53.140;6.498;2022-11-15T05:11:33;8.10;99.90
52879;DHT22;38747;53.140;6.498;2022-11-15T05:13:58;8.10;99.90
52879;DHT22;38747;53.140;6.498;2022-11-15T05:16:24;8.10;99.90
52879;DHT22;38747;53.140;6.498;2022-11-15T05:18:53;8.10;99.90
52879;DHT22;38747;53.140;6.498;2022-11-15T05:21:19;8.10;99.90
52879;DHT22;38747;53.140;6.498;2022-11-15T05:23:45;8.20;99.90
52879;DHT22;38747;53.140;6.498;2022-11-15T05:26:12;8.20;99.90
52879;DHT22;38747;53.140;6.498;2022-11-15T05:28:38;8.20;99.90
52879;DHT22;38747;53.140;6.498;2022-11-15T05:31:14;8.20;99.90
52879;DHT22;38747;53.140;6.498;2022-11-15T05:33:40;8.20;99.90
52879;DHT22;38747;53.140;6.498;2022-11-15T05:36:16;8.30;99.90
52879;DHT22;38747;53.140;6.498;2022-11-15T05:38:43;8.30;99.90
52879;DHT22;38747;53.140;6.498;2022-11-15T05:41:09;8.30;99.90
52879;DHT22;38747;53.140;6.498;2022-11-15T05:43:37;8.30;99.90
52879;DHT22;38747;53.140;6.498;2022-11-15T05:46:05;8.40;99.90
52879;DHT22;38747;53.140;6.498;2022-11-15T05:48:31;8.40;99.90
52879;DHT22;38747;53.140;6.498;2022-11-15T05:50:58;8.40;99.90
52879;DHT22;38747;53.140;6.498;2022-11-15T05:53:25;8.40;99.90
52879;DHT22;38747;53.140;6.498;2022-11-15T05:55:51;8.40;99.90
52879;DHT22;38747;53.140;6.498;2022-11-15T05:58:18;8.50;99.90
52879;DHT22;38747;53.140;6.498;2022-11-15T06:00:44;8.50;99.90
52879;DHT22;38747;53.140;6.498;2022-11-15T06:03:10;8.60;99.90
52879;DHT22;38747;53.140;6.498;2022-11-15T06:05:36;8.60;99.90
52879;DHT22;38747;53.140;6.498;2022-11-15T06:08:02;8.60;99.90
52879;DHT22;38747;53.140;6.498;2022-11-15T06:10:27;8.60;99.90
52879;DHT22;38747;53.140;6.498;2022-11-15T06:13:11;8.70;99.90
52879;DHT22;38747;53.140;6.498;2022-11-15T06:15:37;8.70;99.90
52879;DHT22;38747;53.140;6.498;2022-11-15T06:18:02;8.70;99.90
52879;DHT22;38747;53.140;6.498;2022-11-15T06:20:29;8.80;99.90
52879;DHT22;38747;53.140;6.498;2022-11-15T06:22:59;8.80;99.90
52879;DHT22;38747;53.140;6.498;2022-11-15T06:25:25;8.80;99.90
52879;DHT22;38747;53.140;6.498;2022-11-15T06:27:55;8.80;99.90
52879;DHT22;38747;53.140;6.498;2022-11-15T06:30:22;8.90;99.90
52879;DHT22;38747;53.140;6.498;2022-11-15T06:32:48;8.90;99.90
52879;DHT22;38747;53.140;6.498;2022-11-15T06:35:14;9.00;99.90
52879;DHT22;38747;53.140;6.498;2022-11-15T06:37:40;9.00;99.90
52879;DHT22;38747;53.140;6.498;2022-11-15T06:40:07;9.00;99.90
52879;DHT22;38747;53.140;6.498;2022-11-15T06:42:33;9.10;99.90
52879;DHT22;38747;53.140;6.498;2022-11-15T06:44:59;9.10;99.90
52879;DHT22;38747;53.140;6.498;2022-11-15T06:47:25;9.10;99.90
52879;DHT22;38747;53.140;6.498;2022-11-15T06:49:50;9.10;99.90
52879;DHT22;38747;53.140;6.498;2022-11-15T06:52:16;9.10;99.90
52879;DHT22;38747;53.140;6.498;2022-11-15T06:54:44;9.20;99.90
52879;DHT22;38747;53.140;6.498;2022-11-15T06:57:10;9.20;99.90
52879;DHT22;38747;53.140;6.498;2022-11-15T06:59:36;9.20;99.90
52879;DHT22;38747;53.140;6.498;2022-11-15T07:02:01;9.20;99.90
52879;DHT22;38747;53.140;6.498;2022-11-15T07:04:27;9.30;99.90
52879;DHT22;38747;53.140;6.498;2022-11-15T07:06:53;9.20;99.90
52879;DHT22;38747;53.140;6.498;2022-11-15T07:09:19;9.30;99.90
52879;DHT22;38747;53.140;6.498;2022-11-15T07:11:44;9.30;99.90
52879;DHT22;38747;53.140;6.498;2022-11-15T07:14:10;9.40;99.90
52879;DHT22;38747;53.140;6.498;2022-11-15T07:16:36;9.40;99.90
52879;DHT22;38747;53.140;6.498;2022-11-15T07:19:02;9.40;99.90
52879;DHT22;38747;53.140;6.498;2022-11-15T07:21:28;9.40;99.90
52879;DHT22;38747;53.140;6.498;2022-11-15T07:23:53;9.40;99.90
52879;DHT22;38747;53.140;6.498;2022-11-15T07:26:19;9.40;99.90
52879;DHT22;38747;53.140;6.498;2022-11-15T07:28:45;9.50;99.90
52879;DHT22;38747;53.140;6.498;2022-11-15T07:31:11;9.50;99.90
52879;DHT22;38747;53.140;6.498;2022-11-15T07:33:36;9.50;99.90
52879;DHT22;38747;53.140;6.498;2022-11-15T07:36:04;9.50;99.90
52879;DHT22;38747;53.140;6.498;2022-11-15T07:38:33;9.60;99.90
52879;DHT22;38747;53.140;6.498;2022-11-15T07:41:02;9.60;99.90
52879;DHT22;38747;53.140;6.498;2022-11-15T07:43:28;9.60;99.90
52879;DHT22;38747;53.140;6.498;2022-11-15T07:45:55;9.70;99.90
52879;DHT22;38747;53.140;6.498;2022-11-15T07:48:22;9.70;99.90
52879;DHT22;38747;53.140;6.498;2022-11-15T07:50:48;9.70;99.90
52879;DHT22;38747;53.140;6.498;2022-11-15T07:53:13;9.70;99.90
52879;DHT22;38747;53.140;6.498;2022-11-15T07:55:40;9.80;99.90
52879;DHT22;38747;53.140;6.498;2022-11-15T07:58:09;9.80;99.90
52879;DHT22;38747;53.140;6.498;2022-11-15T08:00:35;9.80;99.90
52879;DHT22;38747;53.140;6.498;2022-11-15T08:03:12;9.90;99.90
52879;DHT22;38747;53.140;6.498;2022-11-15T08:05:39;9.90;99.90
52879;DHT22;38747;53.140;6.498;2022-11-15T08:08:06;9.90;99.90
52879;DHT22;38747;53.140;6.498;2022-11-15T08:10:31;9.90;99.90
52879;DHT22;38747;53.140;6.498;2022-11-15T08:13:05;10.00;99.90
52879;DHT22;38747;53.140;6.498;2022-11-15T08:15:32;10.00;99.90
52879;DHT22;38747;53.140;6.498;2022-11-15T08:18:00;10.00;99.90
52879;DHT22;38747;53.140;6.498;2022-11-15T08:20:27;10.00;99.90
52879;DHT22;38747;53.140;6.498;2022-11-15T08:23:01;10.10;99.90
52879;DHT22;38747;53.140;6.498;2022-11-15T08:25:28;10.10;99.90
52879;DHT22;38747;53.140;6.498;2022-11-15T08:27:57;10.20;99.90
52879;DHT22;38747;53.140;6.498;2022-11-15T08:30:24;10.20;99.90
52879;DHT22;38747;53.140;6.498;2022-11-15T08:32:51;10.20;99.90
52879;DHT22;38747;53.140;6.498;2022-11-15T08:35:18;10.20;99.90
52879;DHT22;38747;53.140;6.498;2022-11-15T08:37:44;10.30;99.90
52879;DHT22;38747;53.140;6.498;2022-11-15T08:40:10;10.30;99.90
52879;DHT22;38747;53.140;6.498;2022-11-15T08:42:36;10.30;99.90
52879;DHT22;38747;53.140;6.498;2022-11-15T08:45:02;10.30;99.90
52879;DHT22;38747;53.140;6.498;2022-11-15T08:47:27;10.30;99.90
52879;DHT22;38747;53.140;6.498;2022-11-15T08:49:53;10.40;99.90
52879;DHT22;38747;53.140;6.498;2022-11-15T08:52:19;10.40;99.90
52879;DHT22;38747;53.140;6.498;2022-11-15T08:54:44;10.40;99.90
52879;DHT22;38747;53.140;6.498;2022-11-15T08:57:10;10.50;99.90
52879;DHT22;38747;53.140;6.498;2022-11-15T08:59:36;10.50;99.90
52879;DHT22;38747;53.140;6.498;2022-11-15T09:02:03;10.60;99.90
52879;DHT22;38747;53.140;6.498;2022-11-15T09:04:29;10.60;99.90
52879;DHT22;38747;53.140;6.498;2022-11-15T09:06:55;10.60;99.90
52879;DHT22;38747;53.140;6.498;2022-11-15T09:09:20;10.60;99.90
52879;DHT22;38747;53.140;6.498;2022-11-15T09:11:46;10.70;99.90
52879;DHT22;38747;53.140;6.498;2022-11-15T09:14:12;10.70;99.90
52879;DHT22;38747;53.140;6.498;2022-11-15T09:16:38;10.80;99.90
52879;DHT22;38747;53.140;6.498;2022-11-15T09:19:04;10.90;99.90
52879;DHT22;38747;53.140;6.498;2022-11-15T09:21:30;10.90;99.90
52879;DHT22;38747;53.140;6.498;2022-11-15T09:23:56;10.90;99.90
52879;DHT22;38747;53.140;6.498;2022-11-15T09:26:21;10.90;99.90
52879;DHT22;38747;53.140;6.498;2022-11-15T09:28:47;11.00;99.90
52879;DHT22;38747;53.140;6.498;2022-11-15T09:31:13;11.00;99.90
52879;DHT22;38747;53.140;6.498;2022-11-15T09:33:38;11.00;99.90
52879;DHT22;38747;53.140;6.498;2022-11-15T09:36:06;11.10;99.90
52879;DHT22;38747;53.140;6.498;2022-11-15T09:38:32;11.10;99.90
52879;DHT22;38747;53.140;6.498;2022-11-15T09:49:21;11.20;99.90
52879;DHT22;38747;53.140;6.498;2022-11-15T09:51:49;11.20;99.90
52879;DHT22;38747;53.140;6.498;2022-11-15T09:54:25;11.30;99.90
52879;DHT22;38747;53.140;6.498;2022-11-15T09:56:52;11.20;99.90
52879;DHT22;38747;53.140;6.498;2022-11-15T10:04:34;11.20;99.90
52879;DHT22;38747;53.140;6.498;2022-11-15T10:07:06;11.20;99.90
52879;DHT22;38747;53.140;6.498;2022-11-15T10:09:43;11.20;99.90
52879;DHT22;38747;53.140;6.498;2022-11-15T10:12:11;11.20;99.90
52879;DHT22;38747;53.140;6.498;2022-11-15T10:14:38;11.20;99.90
52879;DHT22;38747;53.140;6.498;2022-11-15T10:17:09;11.20;99.90
52879;DHT22;38747;53.140;6.498;2022-11-15T10:27:33;11.30;99.90
52879;DHT22;38747;53.140;6.498;2022-11-15T10:29:59;11.30;99.90
52879;DHT22;38747;53.140;6.498;2022-11-15T10:32:25;11.30;99.90
52879;DHT22;38747;53.140;6.498;2022-11-15T10:34:51;11.40;99.90
52879;DHT22;38747;53.140;6.498;2022-11-15T10:37:31;11.40;99.90
52879;DHT22;38747;53.140;6.498;2022-11-15T10:40:16;11.40;99.90
52879;DHT22;38747;53.140;6.498;2022-11-15T10:42:42;11.40;99.90
52879;DHT22;38747;53.140;6.498;2022-11-15T10:45:29;11.40;99.90
52879;DHT22;38747;53.140;6.498;2022-11-15T10:50:45;11.50;99.90
52879;DHT22;38747;53.140;6.498;2022-11-15T10:53:27;11.60;99.90
52879;DHT22;38747;53.140;6.498;2022-11-15T10:55:58;11.70;99.90
52879;DHT22;38747;53.140;6.498;2022-11-15T11:01:22;11.70;99.90
52879;DHT22;38747;53.140;6.498;2022-11-15T11:04:01;11.80;99.90
52879;DHT22;38747;53.140;6.498;2022-11-15T11:06:27;11.80;99.90
52879;DHT22;38747;53.140;6.498;2022-11-15T11:09:02;11.80;99.90
52879;DHT22;38747;53.140;6.498;2022-11-15T11:11:48;11.80;99.90
52879;DHT22;38747;53.140;6.498;2022-11-15T11:14:24;12.00;99.90
52879;DHT22;38747;53.140;6.498;2022-11-15T11:28:48;12.30;99.90
52879;DHT22;38747;53.140;6.498;2022-11-15T11:34:15;12.40;99.90
52879;DHT22;38747;53.140;6.498;2022-11-15T11:37:03;12.60;99.90
52879;DHT22;38747;53.140;6.498;2022-11-15T11:39:51;12.80;99.90
52879;DHT22;38747;53.140;6.498;2022-11-15T11:42:31;12.90;99.90
52879;DHT22;38747;53.140;6.498;2022-11-15T11:45:14;12.90;99.90
52879;DHT22;38747;53.140;6.498;2022-11-15T11:47:51;12.90;99.90
52879;DHT22;38747;53.140;6.498;2022-11-15T11:50:24;12.90;99.90
52879;DHT22;38747;53.140;6.498;2022-11-15T11:53:02;12.80;99.90
52879;DHT22;38747;53.140;6.498;2022-11-15T11:55:31;12.70;99.90
52879;DHT22;38747;53.140;6.498;2022-11-15T11:58:15;12.60;99.90
52879;DHT22;38747;53.140;6.498;2022-11-15T12:04:16;12.40;99.90
52879;DHT22;38747;53.140;6.498;2022-11-15T12:09:41;12.40;99.90
52879;DHT22;38747;53.140;6.498;2022-11-15T12:12:39;12.40;99.90
52879;DHT22;38747;53.140;6.498;2022-11-15T12:15:14;12.30;99.90
52879;DHT22;38747;53.140;6.498;2022-11-15T12:17:41;12.30;99.90
52879;DHT22;38747;53.140;6.498;2022-11-15T12:20:27;12.30;99.90
52879;DHT22;38747;53.140;6.498;2022-11-15T12:23:01;12.30;99.90
52879;DHT22;38747;53.140;6.498;2022-11-15T12:28:29;12.20;99.90
52879;DHT22;38747;53.140;6.498;2022-11-15T12:31:18;12.10;99.90
52879;DHT22;38747;53.140;6.498;2022-11-15T12:33:47;12.20;99.90
52879;DHT22;38747;53.140;6.498;2022-11-15T12:39:00;12.20;99.90
52879;DHT22;38747;53.140;6.498;2022-11-15T12:41:34;12.20;99.90
52879;DHT22;38747;53.140;6.498;2022-11-15T12:44:00;12.30;99.90
52879;DHT22;38747;53.140;6.498;2022-11-15T12:49:00;12.20;99.90
52879;DHT22;38747;53.140;6.498;2022-11-15T12:59:58;12.50;99.90
52879;DHT22;38747;53.140;6.498;2022-11-15T13:04:54;12.70;99.90
52879;DHT22;38747;53.140;6.498;2022-11-15T13:07:54;12.70;99.90
52879;DHT22;38747;53.140;6.498;2022-11-15T13:13:03;12.80;99.90
52879;DHT22;38747;53.140;6.498;2022-11-15T13:15:56;12.70;99.90
52879;DHT22;38747;53.140;6.498;2022-11-15T13:18:31;12.70;99.90
52879;DHT22;38747;53.140;6.498;2022-11-15T13:20:57;12.60;99.90
52879;DHT22;38747;53.140;6.498;2022-11-15T13:23:23;12.60;99.90
52879;DHT22;38747;53.140;6.498;2022-11-15T13:28:52;12.50;99.90
52879;DHT22;38747;53.140;6.498;2022-11-15T13:31:26;12.40;99.90
52879;DHT22;38747;53.140;6.498;2022-11-15T13:33:55;12.40;99.90
52879;DHT22;38747;53.140;6.498;2022-11-15T13:36:32;12.40;99.90
52879;DHT22;38747;53.140;6.498;2022-11-15T13:39:05;12.30;99.90
52879;DHT22;38747;53.140;6.498;2022-11-15T13:41:33;12.30;99.90
52879;DHT22;38747;53.140;6.498;2022-11-15T13:44:00;12.20;99.90
52879;DHT22;38747;53.140;6.498;2022-11-15T13:46:33;12.10;99.90
52879;DHT22;38747;53.140;6.498;2022-11-15T13:49:04;12.10;99.90
52879;DHT22;38747;53.140;6.498;2022-11-15T13:51:42;12.10;99.90
52879;DHT22;38747;53.140;6.498;2022-11-15T13:54:25;12.00;99.90
52879;DHT22;38747;53.140;6.498;2022-11-15T13:56:58;12.00;99.90
52879;DHT22;38747;53.140;6.498;2022-11-15T13:59:27;12.00;99.90
52879;DHT22;38747;53.140;6.498;2022-11-15T14:01:55;11.90;99.90
52879;DHT22;38747;53.140;6.498;2022-11-15T14:04:23;11.90;99.90
52879;DHT22;38747;53.140;6.498;2022-11-15T14:06:54;11.90;99.90
52879;DHT22;38747;53.140;6.498;2022-11-15T14:09:33;11.90;99.90
52879;DHT22;38747;53.140;6.498;2022-11-15T14:11:59;11.80;99.90
52879;DHT22;38747;53.140;6.498;2022-11-15T14:14:27;11.80;99.90
52879;DHT22;38747;53.140;6.498;2022-11-15T14:16:58;11.80;99.90
52879;DHT22;38747;53.140;6.498;2022-11-15T14:24:50;11.70;99.90
52879;DHT22;38747;53.140;6.498;2022-11-15T14:27:29;11.60;99.90
52879;DHT22;38747;53.140;6.498;2022-11-15T14:29:55;11.50;99.90
52879;DHT22;38747;53.140;6.498;2022-11-15T14:32:21;11.50;99.90
52879;DHT22;38747;53.140;6.498;2022-11-15T14:34:49;11.50;99.90
52879;DHT22;38747;53.140;6.498;2022-11-15T14:37:24;11.40;99.90
52879;DHT22;38747;53.140;6.498;2022-11-15T14:39:51;11.40;99.90
52879;DHT22;38747;53.140;6.498;2022-11-15T14:42:17;11.40;99.90
52879;DHT22;38747;53.140;6.498;2022-11-15T14:44:43;11.30;99.90
52879;DHT22;38747;53.140;6.498;2022-11-15T14:47:09;11.30;99.90
52879;DHT22;38747;53.140;6.498;2022-11-15T14:49:35;11.20;99.90
52879;DHT22;38747;53.140;6.498;2022-11-15T14:52:00;11.20;99.90
52879;DHT22;38747;53.140;6.498;2022-11-15T14:54:26;11.10;99.90
52879;DHT22;38747;53.140;6.498;2022-11-15T14:56:52;11.10;99.90
52879;DHT22;38747;53.140;6.498;2022-11-15T14:59:18;11.00;99.90
52879;DHT22;38747;53.140;6.498;2022-11-15T15:01:44;11.00;99.90
52879;DHT22;38747;53.140;6.498;2022-11-15T15:04:10;10.90;99.90
52879;DHT22;38747;53.140;6.498;2022-11-15T15:06:37;10.80;99.90
52879;DHT22;38747;53.140;6.498;2022-11-15T15:09:03;10.80;99.90
52879;DHT22;38747;53.140;6.498;2022-11-15T15:11:31;10.70;99.90
52879;DHT22;38747;53.140;6.498;2022-11-15T15:13:57;10.60;99.90
52879;DHT22;38747;53.140;6.498;2022-11-15T15:16:25;10.60;99.90
52879;DHT22;38747;53.140;6.498;2022-11-15T15:18:51;10.50;99.90
52879;DHT22;38747;53.140;6.498;2022-11-15T15:21:23;10.50;99.90
52879;DHT22;38747;53.140;6.498;2022-11-15T15:23:49;10.40;99.90
52879;DHT22;38747;53.140;6.498;2022-11-15T15:26:15;10.40;99.90
52879;DHT22;38747;53.140;6.498;2022-11-15T15:28:41;10.30;99.90
52879;DHT22;38747;53.140;6.498;2022-11-15T15:31:08;10.30;99.90
52879;DHT22;38747;53.140;6.498;2022-11-15T15:33:34;10.30;99.90
52879;DHT22;38747;53.140;6.498;2022-11-15T15:36:00;10.20;99.90
52879;DHT22;38747;53.140;6.498;2022-11-15T15:38:26;10.20;99.90
52879;DHT22;38747;53.140;6.498;2022-11-15T15:40:51;10.20;99.90
52879;DHT22;38747;53.140;6.498;2022-11-15T15:43:17;10.20;99.90
52879;DHT22;38747;53.140;6.498;2022-11-15T15:45:43;10.20;99.90
52879;DHT22;38747;53.140;6.498;2022-11-15T15:48:15;10.20;99.90
52879;DHT22;38747;53.140;6.498;2022-11-15T15:50:41;10.20;99.90
52879;DHT22;38747;53.140;6.498;2022-11-15T15:53:09;10.20;99.90
52879;DHT22;38747;53.140;6.498;2022-11-15T15:55:36;10.20;99.90
52879;DHT22;38747;53.140;6.498;2022-11-15T15:58:02;10.20;99.90
52879;DHT22;38747;53.140;6.498;2022-11-15T16:00:28;10.10;99.90
52879;DHT22;38747;53.140;6.498;2022-11-15T16:02:54;10.20;99.90
52879;DHT22;38747;53.140;6.498;2022-11-15T16:05:21;10.20;99.90
52879;DHT22;38747;53.140;6.498;2022-11-15T16:07:47;10.10;99.90
52879;DHT22;38747;53.140;6.498;2022-11-15T16:12:44;10.10;99.90
52879;DHT22;38747;53.140;6.498;2022-11-15T16:15:09;10.10;99.90
52879;DHT22;38747;53.140;6.498;2022-11-15T16:17:39;10.10;99.90
52879;DHT22;38747;53.140;6.498;2022-11-15T16:20:05;10.00;99.90
52879;DHT22;38747;53.140;6.498;2022-11-15T16:22:31;10.00;99.90
52879;DHT22;38747;53.140;6.498;2022-11-15T16:24:57;10.00;99.90
52879;DHT22;38747;53.140;6.498;2022-11-15T16:27:23;10.00;99.90
52879;DHT22;38747;53.140;6.498;2022-11-15T16:29:49;9.90;99.90
52879;DHT22;38747;53.140;6.498;2022-11-15T16:32:15;9.90;99.90
52879;DHT22;38747;53.140;6.498;2022-11-15T16:34:41;9.90;99.90
52879;DHT22;38747;53.140;6.498;2022-11-15T16:37:21;9.90;99.90
52879;DHT22;38747;53.140;6.498;2022-11-15T16:39:47;9.90;99.90
52879;DHT22;38747;53.140;6.498;2022-11-15T16:42:12;9.90;99.90
52879;DHT22;38747;53.140;6.498;2022-11-15T16:44:38;10.00;99.90
52879;DHT22;38747;53.140;6.498;2022-11-15T16:47:04;10.00;99.90
52879;DHT22;38747;53.140;6.498;2022-11-15T16:49:29;10.10;99.90
52879;DHT22;38747;53.140;6.498;2022-11-15T16:51:55;10.10;99.90
52879;DHT22;38747;53.140;6.498;2022-11-15T16:54:20;10.10;99.90
52879;DHT22;38747;53.140;6.498;2022-11-15T16:56:46;10.10;99.90
52879;DHT22;38747;53.140;6.498;2022-11-15T16:59:16;10.20;99.90
52879;DHT22;38747;53.140;6.498;2022-11-15T17:01:42;10.20;99.90
52879;DHT22;38747;53.140;6.498;2022-11-15T17:04:16;10.20;99.90
52879;DHT22;38747;53.140;6.498;2022-11-15T17:06:43;10.20;99.90
52879;DHT22;38747;53.140;6.498;2022-11-15T17:09:18;10.30;99.90
52879;DHT22;38747;53.140;6.498;2022-11-15T17:11:44;10.30;99.90
52879;DHT22;38747;53.140;6.498;2022-11-15T17:14:11;10.30;99.90
52879;DHT22;38747;53.140;6.498;2022-11-15T17:16:37;10.30;99.90
52879;DHT22;38747;53.140;6.498;2022-11-15T17:19:17;10.40;99.90
52879;DHT22;38747;53.140;6.498;2022-11-15T17:21:43;10.40;99.90
52879;DHT22;38747;53.140;6.498;2022-11-15T17:24:09;10.40;99.90
52879;DHT22;38747;53.140;6.498;2022-11-15T17:26:35;10.50;99.90
52879;DHT22;38747;53.140;6.498;2022-11-15T17:29:02;10.50;99.90
52879;DHT22;38747;53.140;6.498;2022-11-15T17:31:29;10.60;99.90
52879;DHT22;38747;53.140;6.498;2022-11-15T17:33:59;10.60;99.90
52879;DHT22;38747;53.140;6.498;2022-11-15T17:36:25;10.60;99.90
52879;DHT22;38747;53.140;6.498;2022-11-15T17:38:51;10.60;99.90
52879;DHT22;38747;53.140;6.498;2022-11-15T17:41:17;10.60;99.90
52879;DHT22;38747;53.140;6.498;2022-11-15T17:43:43;10.70;99.90
52879;DHT22;38747;53.140;6.498;2022-11-15T17:46:19;10.70;99.90